Etusivu
METAR-TAF:

METAR-TAF

Lentoasemat :

Jekaterinburg, Venäjä

Koltsovon kansainvälinen lentoasema

Leveyspiiri: 56-50N, Pituuspiiri: 060-38E, korkeus merenpinnasta: 237 m

Tämänhetkinen sää

Tämä raportti tehtiin 43 minuuttia sitten, kello 23.30 UTC
Tuuli 6 kn lännestä/luoteesta, vaihdellen lännen ja pohjoisen/luoteen välillä
Lämpötila 1°C
Kosteus 75%
Ilmanpaine 1007 hPa
Näkyvyys 10 km tai enemmän
Hajonneita pilviä 3600 ft:n korkeudessa

METAR: USSS 282330Z 30003MPS 270V330 9999 BKN036 01/M03 Q1007 R26R/010060 NOSIG RMK QFE735/0980

Aika: 05:13 (00:13 UTC)

Sääennuste

Tämä raportti tehtiin 1 tunti ja 13 minuuttia sitten, kello 23.00 UTC
Ennuste voimassa 29. päivästä klo 00 UTC - 29. päivään klo 24 UTC
Tuuli 12 kn luoteesta
Näkyvyys 10 km tai enemmän
Hajanaisia pilviä 1100 ft:n korkeudessa
Hajanaisia pilviä 2000 ft:n korkeudessa, Cumulonimbus.

TAF: USSS 282300Z 2900/2924 32006MPS 9999 SCT011 SCT020CB

Säähavainnot ja -ennusteet yli 4000 lentoasemalta (METAR- ja TAF-raportit).

Käytössä olevat sääasemat on merkitty karttaan keltaisilla ja punaisilla pisteillä.

Aseta hiiri pisteen päälle nähdäksesi sääaseman nimen.

Klikkaa sitten nähdäksesi säähavainnot ja -ennusteet.

Kartan vaihtaminen: klikkaa mustalla rastilla varustettuja vihreitä pisteitä, niin voit zoomata sisään; viivalla varustettua vihreää pistettä, niin voit zoomata ulos tai vihreitä nuolia, niin pääset viereisille kartoille.


METAR-TAF: